Time;durP1;ratioP1;P1;durP2;ratioP2;P2;SDS_P1;SDS_P2;PMS_P1;PMS_P2;Temp;Humidity;BMP_temperature;BMP_pressure;BME280_temperature;BME280_humidity;BME280_pressure;Samples;Min_cycle;Max_cycle;Signal;HPM_P1;HPM_P2
2021/06/02 00:00:15;;;;;;;1.12;0.50;;;20.00;43.30;;;;;;4358156;32;20517;-35
2021/06/02 00:02:47;;;;;;;5.90;0.70;;;20.00;43.30;;;;;;4358418;32;20070;-35
2021/06/02 00:05:14;;;;;;;1.62;0.55;;;19.90;43.40;;;;;;4325536;33;20491;-36
2021/06/02 00:07:41;;;;;;;0.75;0.62;;;19.90;43.40;;;;;;4326534;33;20086;-36
2021/06/02 00:10:13;;;;;;;2.35;0.75;;;19.90;43.40;;;;;;4326297;33;20082;-34
2021/06/02 00:12:39;;;;;;;1.08;0.70;;;19.80;43.50;;;;;;4326435;33;20071;-36
2021/06/02 00:15:07;;;;;;;1.95;0.50;;;19.80;43.50;;;;;;4313962;33;20158;-35
2021/06/02 00:17:34;;;;;;;1.83;0.70;;;19.70;43.60;;;;;;4314412;33;20070;-33
2021/06/02 00:20:00;;;;;;;0.40;0.40;;;19.60;43.60;;;;;;4314642;33;20534;-36
2021/06/02 00:22:27;;;;;;;0.47;0.40;;;19.70;43.80;;;;;;4313520;33;20115;-36
2021/06/02 00:24:55;;;;;;;0.70;0.50;;;19.70;43.90;;;;;;4313529;33;20139;-36
2021/06/02 00:27:21;;;;;;;7.60;0.60;;;19.60;43.80;;;;;;4326069;33;20537;-35
2021/06/02 00:29:48;;;;;;;0.95;0.50;;;19.50;43.80;;;;;;4301239;33;20067;-34
2021/06/02 00:32:14;;;;;;;2.20;0.60;;;19.50;43.90;;;;;;4313617;33;20086;-34
2021/06/02 00:34:41;;;;;;;1.80;0.75;;;19.50;44.10;;;;;;4326059;33;20124;-34
2021/06/02 00:37:09;;;;;;;1.75;0.60;;;19.50;44.20;;;;;;4325771;33;20075;-34
2021/06/02 00:39:36;;;;;;;1.17;0.50;;;19.40;44.20;;;;;;4326460;33;20684;-34
2021/06/02 00:42:03;;;;;;;0.85;0.50;;;19.40;44.30;;;;;;4333464;32;20152;-34
2021/06/02 00:44:29;;;;;;;1.20;0.77;;;19.40;44.30;;;;;;4343999;32;20058;-34
2021/06/02 00:46:59;;;;;;;1.70;0.62;;;19.30;44.40;;;;;;4357749;32;20071;-34
2021/06/02 00:49:26;;;;;;;0.90;0.60;;;19.30;44.50;;;;;;4344338;32;20065;-35
2021/06/02 00:52:04;;;;;;;1.37;0.70;;;19.20;44.70;;;;;;4357852;32;20098;-34
2021/06/02 00:54:36;;;;;;;7.97;1.12;;;19.10;44.80;;;;;;4358254;32;20167;-34
2021/06/02 00:57:10;;;;;;;1.77;0.70;;;19.10;44.90;;;;;;4345096;32;20074;-34
2021/06/02 01:00:08;;;;;;;1.30;0.80;;;19.00;45.00;;;;;;4358086;32;20062;-35
2021/06/02 01:02:36;;;;;;;1.55;0.50;;;19.10;44.90;;;;;;4311548;33;20067;-35
2021/06/02 01:05:03;;;;;;;3.15;0.50;;;19.00;45.00;;;;;;4299884;33;20078;-35
2021/06/02 01:07:30;;;;;;;0.88;0.70;;;19.10;45.00;;;;;;4312391;33;20113;-36
2021/06/02 01:09:57;;;;;;;1.48;0.98;;;19.10;44.80;;;;;;4299475;33;20059;-34
2021/06/02 01:12:29;;;;;;;0.90;0.70;;;19.20;44.50;;;;;;4299241;33;20071;-34
2021/06/02 01:14:56;;;;;;;4.25;0.60;;;19.20;44.60;;;;;;4299363;33;20060;-35
2021/06/02 01:17:28;;;;;;;0.50;0.43;;;19.30;44.50;;;;;;4311066;33;20082;-34
2021/06/02 01:19:58;;;;;;;2.55;0.90;;;19.40;44.30;;;;;;4311098;33;20192;-35
2021/06/02 01:22:27;;;;;;;0.98;0.60;;;19.40;44.00;;;;;;4311143;33;20079;-35
2021/06/02 01:24:53;;;;;;;3.37;0.70;;;19.40;44.00;;;;;;4297527;33;20102;-36
2021/06/02 01:27:20;;;;;;;1.77;0.85;;;19.40;43.70;;;;;;4284622;33;20157;-36
2021/06/02 01:29:48;;;;;;;3.00;0.75;;;19.40;43.70;;;;;;4283934;33;20083;-34
2021/06/02 01:32:40;;;;;;;3.92;1.33;;;19.50;43.60;;;;;;4296347;33;20085;-36
2021/06/02 01:35:40;;;;;;;3.85;0.60;;;19.50;43.50;;;;;;4296537;33;20076;-36
2021/06/02 01:38:58;;;;;;;1.37;0.68;;;19.60;43.40;;;;;;4305715;33;20075;-34
2021/06/02 01:41:54;;;;;;;0.88;0.50;;;19.60;43.20;;;;;;4345389;32;20070;-35
2021/06/02 01:45:16;;;;;;;1.08;0.50;;;19.60;43.20;;;;;;4316525;33;20143;-34
2021/06/02 01:48:26;;;;;;;2.28;0.55;;;19.70;42.90;;;;;;4328039;33;20602;-36
2021/06/02 01:51:13;;;;;;;2.75;1.17;;;19.70;42.90;;;;;;4284170;33;20091;-36
2021/06/02 01:54:40;;;;;;;2.60;0.62;;;19.80;42.80;;;;;;4284297;33;20075;-36
2021/06/02 01:57:30;;;;;;;4.78;0.70;;;19.80;42.60;;;;;;4270875;33;20747;-35
2021/06/02 02:00:36;;;;;;;2.42;0.82;;;19.90;42.70;;;;;;4284467;33;20075;-35
2021/06/02 02:03:49;;;;;;;2.00;0.57;;;19.90;42.30;;;;;;4284007;33;20681;-35
2021/06/02 02:06:38;;;;;;;0.88;0.40;;;20.10;41.90;;;;;;4284247;33;20084;-36
2021/06/02 02:09:27;;;;;;;1.42;0.40;;;20.30;41.60;;;;;;4283906;33;20068;-37
2021/06/02 02:12:20;;;;;;;0.62;0.30;;;20.50;41.20;;;;;;4272267;33;20111;-37
2021/06/02 02:15:04;;;;;;;1.67;0.57;;;20.70;40.70;;;;;;4272144;33;20079;-36
2021/06/02 02:17:55;;;;;;;1.65;1.02;;;21.00;40.10;;;;;;4284158;33;20103;-37
2021/06/02 02:20:52;;;;;;;0.50;0.30;;;21.30;39.70;;;;;;4284031;33;20112;-36
2021/06/02 02:23:41;;;;;;;0.80;0.52;;;21.50;39.40;;;;;;4287539;33;20075;-36
2021/06/02 02:26:51;;;;;;;2.97;0.32;;;21.60;38.80;;;;;;4323204;32;20148;-36
2021/06/02 02:29:43;;;;;;;0.52;0.25;;;21.80;38.60;;;;;;4359527;32;20062;-36
2021/06/02 02:32:38;;;;;;;3.58;0.37;;;22.00;38.40;;;;;;4346198;32;20155;-37
2021/06/02 02:35:29;;;;;;;1.55;0.60;;;22.10;38.00;;;;;;4354292;32;20065;-36
2021/06/02 02:38:09;;;;;;;0.30;0.30;;;22.30;37.70;;;;;;4312686;33;20630;-37
2021/06/02 02:41:06;;;;;;;0.60;0.43;;;22.50;37.40;;;;;;4301583;33;20078;-37
2021/06/02 02:43:59;;;;;;;1.10;0.60;;;22.70;36.90;;;;;;4302387;33;20067;-37
2021/06/02 02:46:40;;;;;;;0.30;0.28;;;22.80;36.30;;;;;;4312951;33;20203;-36
2021/06/02 02:49:09;;;;;;;6.75;0.40;;;23.00;36.10;;;;;;4313454;33;20071;-37
2021/06/02 02:51:35;;;;;;;0.98;0.35;;;23.10;35.90;;;;;;4313255;33;20075;-37
2021/06/02 02:54:05;;;;;;;1.15;0.40;;;23.20;35.80;;;;;;4313109;33;20235;-37
2021/06/02 02:57:04;;;;;;;1.52;0.60;;;23.40;35.50;;;;;;4301078;33;20070;-37
2021/06/02 02:59:51;;;;;;;1.08;0.50;;;23.50;35.10;;;;;;4301046;33;20311;-37
2021/06/02 03:02:26;;;;;;;4.40;0.85;;;23.60;34.80;;;;;;4301957;33;20070;-37
2021/06/02 03:04:56;;;;;;;0.90;0.68;;;23.70;34.50;;;;;;4299890;33;20070;-37
2021/06/02 03:07:22;;;;;;;1.80;0.60;;;23.80;34.50;;;;;;4300279;33;20083;-34
2021/06/02 03:10:03;;;;;;;2.45;0.35;;;24.00;34.20;;;;;;4300492;33;20090;-36
2021/06/02 03:13:12;;;;;;;0.70;0.40;;;24.20;34.00;;;;;;4312419;33;20098;-34
2021/06/02 03:15:45;;;;;;;1.37;0.40;;;24.30;33.70;;;;;;4339550;32;20120;-35
2021/06/02 03:18:45;;;;;;;1.45;0.60;;;24.50;33.20;;;;;;4345669;32;20071;-36
2021/06/02 03:21:59;;;;;;;0.40;0.35;;;24.50;33.00;;;;;;4358889;32;20074;-38
2021/06/02 03:24:35;;;;;;;3.03;0.40;;;24.50;32.90;;;;;;4347886;32;20611;-36
2021/06/02 03:27:12;;;;;;;3.80;0.68;;;24.40;33.10;;;;;;4317890;33;20467;-36
2021/06/02 03:29:53;;;;;;;3.50;0.50;;;24.50;33.10;;;;;;4331025;33;20132;-37
2021/06/02 03:32:46;;;;;;;0.20;0.10;;;24.60;32.90;;;;;;4318710;33;20080;-37
2021/06/02 03:35:18;;;;;;;1.58;0.60;;;24.70;33.10;;;;;;4331431;33;20079;-37
2021/06/02 03:38:12;;;;;;;2.97;0.70;;;24.70;32.60;;;;;;4343803;32;20080;-36
2021/06/02 03:40:56;;;;;;;2.45;0.55;;;24.90;32.80;;;;;;4323543;33;20071;-36
2021/06/02 03:43:31;;;;;;;2.03;0.45;;;25.00;32.50;;;;;;4343340;32;20063;-35
2021/06/02 03:46:21;;;;;;;7.93;0.52;;;25.20;32.40;;;;;;4343119;32;20078;-35
2021/06/02 03:49:19;;;;;;;0.62;0.45;;;25.20;32.10;;;;;;4314890;33;20105;-37
2021/06/02 03:52:46;;;;;;;3.17;0.50;;;25.30;32.00;;;;;;4324762;33;20093;-37
2021/06/02 03:55:28;;;;;;;2.45;0.73;;;25.20;31.70;;;;;;4311085;33;20126;-36
2021/06/02 03:58:52;;;;;;;3.08;0.95;;;25.20;31.40;;;;;;4291595;33;20066;-36
2021/06/02 04:01:30;;;;;;;5.25;0.47;;;25.00;31.40;;;;;;4317584;33;20090;-37
2021/06/02 04:04:23;;;;;;;1.42;0.80;;;25.00;31.50;;;;;;4314564;33;20134;-36
2021/06/02 04:07:06;;;;;;;1.55;0.70;;;25.00;31.40;;;;;;4314182;33;20624;-37
2021/06/02 04:10:35;;;;;;;2.90;0.82;;;25.00;31.30;;;;;;4325954;33;20081;-36
2021/06/02 04:13:34;;;;;;;0.88;0.32;;;25.00;31.50;;;;;;4308794;33;20067;-35
2021/06/02 04:16:13;;;;;;;1.17;0.60;;;25.00;31.50;;;;;;4304857;33;20151;-36
2021/06/02 04:18:42;;;;;;;5.87;0.50;;;25.00;31.00;;;;;;4325946;33;20528;-36
2021/06/02 04:21:10;;;;;;;0.75;0.43;;;24.90;31.20;;;;;;4326079;33;20094;-37
2021/06/02 04:23:38;;;;;;;0.98;0.40;;;25.00;31.50;;;;;;4331639;33;20135;-36
2021/06/02 04:26:05;;;;;;;2.28;0.37;;;25.10;31.70;;;;;;4334957;32;20507;-36
2021/06/02 04:28:33;;;;;;;3.50;0.95;;;25.30;31.60;;;;;;4343782;32;20077;-36
2021/06/02 04:31:11;;;;;;;4.65;1.00;;;25.40;31.20;;;;;;4357734;32;20101;-35
2021/06/02 04:33:39;;;;;;;3.40;0.62;;;25.50;31.10;;;;;;4357865;32;20532;-36
2021/06/02 04:36:11;;;;;;;2.42;0.98;;;25.40;30.60;;;;;;4343706;32;20550;-36
2021/06/02 04:38:38;;;;;;;3.35;0.70;;;25.40;30.50;;;;;;4358094;32;20074;-36
2021/06/02 04:41:07;;;;;;;3.33;0.32;;;25.40;30.20;;;;;;4343761;32;20531;-37
2021/06/02 04:43:38;;;;;;;5.18;0.70;;;25.30;30.50;;;;;;4357753;32;20073;-35
2021/06/02 04:46:07;;;;;;;1.17;0.50;;;25.40;30.40;;;;;;4343627;32;20531;-37
2021/06/02 04:48:34;;;;;;;0.45;0.30;;;25.50;30.20;;;;;;4357657;32;20129;-36
2021/06/02 04:51:37;;;;;;;1.50;0.50;;;25.40;30.00;;;;;;4357866;32;20069;-36
2021/06/02 04:54:53;;;;;;;0.98;0.32;;;25.40;30.00;;;;;;4357621;32;20083;-38
2021/06/02 04:57:35;;;;;;;8.57;1.20;;;25.40;30.30;;;;;;4347474;32;20574;-37
2021/06/02 05:00:14;;;;;;;3.25;1.08;;;25.50;30.40;;;;;;4357266;32;20486;-37
2021/06/02 05:03:16;;;;;;;4.62;1.15;;;25.50;30.40;;;;;;4344037;32;20090;-37
2021/06/02 05:06:32;;;;;;;2.75;0.85;;;25.50;30.50;;;;;;4343714;32;20078;-37
2021/06/02 05:09:04;;;;;;;0.93;0.50;;;25.60;30.70;;;;;;4357304;32;20090;-36
2021/06/02 05:11:57;;;;;;;1.83;0.40;;;25.70;30.80;;;;;;4357455;32;20070;-38
2021/06/02 05:14:47;;;;;;;4.25;0.68;;;25.80;30.90;;;;;;4347859;32;20488;-38
2021/06/02 05:17:54;;;;;;;0.80;0.43;;;25.90;30.80;;;;;;4360616;32;20141;-37
2021/06/02 05:24:20;;;;;;;0.85;0.50;;;26.00;30.80;;;;;;4312825;33;20083;-37
2021/06/02 05:27:23;;;;;;;4.37;0.65;;;26.10;31.10;;;;;;4345419;32;20118;-37
2021/06/02 05:30:31;;;;;;;5.37;0.57;;;26.10;31.00;;;;;;4327140;32;20077;-38
2021/06/02 05:33:34;;;;;;;1.50;0.80;;;26.00;31.00;;;;;;4334575;32;20072;-37
2021/06/02 05:36:34;;;;;;;2.97;0.47;;;26.10;31.10;;;;;;4345096;33;20101;-37
2021/06/02 05:39:21;;;;;;;3.25;1.00;;;26.00;30.80;;;;;;4332253;33;20172;-38
2021/06/02 05:42:22;;;;;;;2.90;0.70;;;25.90;30.90;;;;;;4345026;32;20517;-36
2021/06/02 05:45:42;;;;;;;2.12;0.80;;;26.00;31.00;;;;;;4345167;32;20078;-37
2021/06/02 05:48:57;;;;;;;4.90;1.05;;;26.00;30.80;;;;;;4303574;32;20079;-37
2021/06/02 05:52:04;;;;;;;1.23;0.30;;;26.10;30.70;;;;;;4344656;33;20142;-38
2021/06/02 05:55:04;;;;;;;2.10;0.68;;;26.20;30.90;;;;;;4344601;32;20187;-37
2021/06/02 05:57:34;;;;;;;1.37;0.37;;;26.20;30.70;;;;;;4331384;32;20059;-37
2021/06/02 06:00:29;;;;;;;0.47;0.40;;;26.50;30.60;;;;;;4344712;32;20176;-38
2021/06/02 06:03:10;;;;;;;;;;;26.60;30.50;;;;;;4331822;33;20055;-38
2021/06/02 06:06:23;;;;;;;3.97;0.50;;;26.80;30.30;;;;;;4344654;32;19951;-38
2021/06/02 06:09:40;;;;;;;1.80;0.77;;;26.90;30.00;;;;;;4322272;32;20067;-37
2021/06/02 06:12:46;;;;;;;3.12;0.50;;;27.00;29.80;;;;;;4344745;32;20069;-37
2021/06/02 06:15:56;;;;;;;2.05;0.60;;;27.10;29.90;;;;;;4344481;32;20074;-37
2021/06/02 06:18:41;;;;;;;2.92;0.40;;;27.10;29.60;;;;;;4344757;33;20059;-38
2021/06/02 06:21:47;;;;;;;2.60;1.23;;;27.20;30.00;;;;;;4345042;32;20156;-37
2021/06/02 06:24:35;;;;;;;1.83;0.30;;;27.50;29.80;;;;;;4353765;32;20098;-37
2021/06/02 06:27:18;;;;;;;0.77;0.50;;;27.80;29.70;;;;;;4338578;32;20063;-38
2021/06/02 06:30:24;;;;;;;1.92;0.73;;;27.90;29.10;;;;;;4346820;32;20086;-37
2021/06/02 06:32:56;;;;;;;7.87;0.47;;;27.90;29.20;;;;;;4346363;32;20530;-39
2021/06/02 06:35:22;;;;;;;0.80;0.40;;;28.00;29.10;;;;;;4333630;32;20595;-37
2021/06/02 06:37:51;;;;;;;1.90;0.50;;;28.00;29.10;;;;;;4333288;32;20139;-37
2021/06/02 06:40:36;;;;;;;2.25;0.65;;;28.10;29.00;;;;;;4345519;32;20608;-38
2021/06/02 06:43:04;;;;;;;;;;;28.10;29.40;;;;;;4345934;32;20627;-38
2021/06/02 06:45:34;;;;;;;2.03;0.77;;;28.10;29.00;;;;;;4358791;32;20052;-38
2021/06/02 06:48:04;;;;;;;0.70;0.40;;;28.10;29.20;;;;;;4345716;32;20625;-37
2021/06/02 06:50:30;;;;;;;2.22;0.73;;;28.20;29.20;;;;;;4345433;32;20094;-36
2021/06/02 06:53:01;;;;;;;2.05;0.60;;;28.30;29.00;;;;;;4333207;32;20070;-38
2021/06/02 06:55:28;;;;;;;2.80;0.55;;;28.30;29.10;;;;;;4345211;32;20150;-37
2021/06/02 06:57:54;;;;;;;5.43;0.60;;;28.30;29.00;;;;;;4345454;32;20153;-36
2021/06/02 07:00:21;;;;;;;0.40;0.30;;;28.30;29.00;;;;;;4345333;32;20146;-37
2021/06/02 07:02:47;;;;;;;1.50;0.70;;;28.20;28.90;;;;;;4344467;32;20170;-38
2021/06/02 07:05:14;;;;;;;2.22;0.50;;;28.20;29.10;;;;;;4358960;32;20051;-38
2021/06/02 07:07:45;;;;;;;1.00;0.75;;;28.20;29.10;;;;;;4345065;32;20059;-38
2021/06/02 07:10:13;;;;;;;3.22;0.90;;;28.20;29.10;;;;;;4358584;32;20055;-37
2021/06/02 07:12:41;;;;;;;2.35;0.93;;;28.10;28.80;;;;;;4358524;32;20086;-37
2021/06/02 07:15:10;;;;;;;4.65;1.15;;;28.00;29.10;;;;;;4345062;32;20082;-37
2021/06/02 07:17:46;;;;;;;1.45;0.80;;;28.00;28.90;;;;;;4358606;32;20061;-38
2021/06/02 07:20:17;;;;;;;1.37;0.80;;;28.10;29.20;;;;;;4314743;33;20072;-37
2021/06/02 07:22:47;;;;;;;1.75;0.80;;;27.90;28.80;;;;;;4313849;33;20074;-38
2021/06/02 07:25:18;;;;;;;2.50;0.60;;;27.90;29.20;;;;;;4311653;33;20083;-38
2021/06/02 07:27:45;;;;;;;2.58;0.80;;;27.90;29.30;;;;;;4299919;33;20113;-38
2021/06/02 07:30:26;;;;;;;1.00;0.50;;;28.00;29.30;;;;;;4311627;33;20068;-37
2021/06/02 07:32:54;;;;;;;2.35;1.25;;;28.00;29.50;;;;;;4311787;33;20067;-37
2021/06/02 07:35:20;;;;;;;2.80;0.80;;;28.20;29.30;;;;;;4299416;33;20536;-37
2021/06/02 07:37:47;;;;;;;1.87;0.60;;;28.20;29.20;;;;;;4311655;33;21219;-37
2021/06/02 07:40:14;;;;;;;6.28;1.10;;;28.30;29.40;;;;;;4299392;33;20083;-37
2021/06/02 07:42:41;;;;;;;2.28;0.60;;;28.40;29.20;;;;;;4299434;33;20647;-37
2021/06/02 07:45:08;;;;;;;4.30;1.02;;;28.50;29.20;;;;;;4311869;33;20156;-38
2021/06/02 07:47:35;;;;;;;11.15;0.95;;;28.50;29.00;;;;;;4311699;33;20536;-36
2021/06/02 07:50:01;;;;;;;4.43;0.60;;;28.50;29.00;;;;;;4296481;33;20084;-37
2021/06/02 07:52:28;;;;;;;2.33;0.60;;;28.50;29.00;;;;;;4297054;33;20075;-36
2021/06/02 07:54:55;;;;;;;2.45;0.80;;;28.50;29.10;;;;;;4296895;33;20484;-37
2021/06/02 07:57:21;;;;;;;1.80;0.80;;;28.50;29.00;;;;;;4284755;33;20110;-37
2021/06/02 07:59:48;;;;;;;2.50;1.10;;;28.40;29.10;;;;;;4284884;33;20079;-37
2021/06/02 08:02:15;;;;;;;6.55;1.37;;;28.50;29.20;;;;;;4296791;33;20200;-37
2021/06/02 08:04:42;;;;;;;2.12;0.80;;;28.30;29.30;;;;;;4296592;33;20083;-37
2021/06/02 08:07:09;;;;;;;0.95;0.55;;;28.40;29.50;;;;;;4296773;33;20187;-39
2021/06/02 08:09:36;;;;;;;2.78;1.00;;;28.60;29.60;;;;;;4284791;33;20650;-38
2021/06/02 08:12:10;;;;;;;3.97;0.80;;;29.00;28.90;;;;;;4296869;33;20101;-39
2021/06/02 08:14:37;;;;;;;2.33;0.70;;;29.10;29.20;;;;;;4296844;33;20142;-37
2021/06/02 08:17:03;;;;;;;4.68;1.58;;;29.20;28.90;;;;;;4296995;33;20067;-38
2021/06/02 08:19:30;;;;;;;3.72;0.60;;;29.20;28.70;;;;;;4297174;33;20111;-36
2021/06/02 08:21:56;;;;;;;2.78;0.70;;;29.20;28.70;;;;;;4309466;33;20651;-36
2021/06/02 08:24:23;;;;;;;1.67;0.80;;;29.20;28.70;;;;;;4349436;32;20088;-37
2021/06/02 08:26:50;;;;;;;4.80;0.85;;;29.10;28.60;;;;;;4357576;32;20536;-37
2021/06/02 08:29:16;;;;;;;4.60;0.93;;;29.00;29.20;;;;;;4344001;32;20084;-38
2021/06/02 08:31:43;;;;;;;1.23;0.55;;;28.90;28.60;;;;;;4357540;32;20085;-39
2021/06/02 08:34:10;;;;;;;5.50;1.08;;;28.90;29.00;;;;;;4357550;32;20511;-39
2021/06/02 08:36:36;;;;;;;5.68;0.65;;;29.00;29.30;;;;;;4358037;32;20084;-38
2021/06/02 08:39:06;;;;;;;1.27;0.65;;;29.00;29.10;;;;;;4343811;32;20144;-38
2021/06/02 08:41:32;;;;;;;3.12;0.85;;;29.00;29.20;;;;;;4357908;32;20081;-38
2021/06/02 08:43:59;;;;;;;5.15;0.88;;;29.00;29.10;;;;;;4357630;32;20074;-38
2021/06/02 08:46:26;;;;;;;1.90;0.80;;;29.20;29.30;;;;;;4345091;32;20070;-38
2021/06/02 08:48:52;;;;;;;1.75;0.93;;;29.30;29.20;;;;;;4360446;32;20067;-38
2021/06/02 08:51:19;;;;;;;2.60;0.60;;;29.30;28.90;;;;;;4360338;32;20074;-37
2021/06/02 08:53:49;;;;;;;3.75;0.60;;;29.40;29.10;;;;;;4361710;32;20061;-39
2021/06/02 08:56:16;;;;;;;5.10;0.90;;;29.50;29.00;;;;;;4361118;32;20078;-39
2021/06/02 08:58:42;;;;;;;1.33;0.60;;;29.60;28.80;;;;;;4346748;32;20166;-37
2021/06/02 09:01:09;;;;;;;3.40;1.02;;;29.70;28.80;;;;;;4346952;32;20495;-38
2021/06/02 09:03:36;;;;;;;1.27;0.77;;;29.70;28.50;;;;;;4346996;32;20070;-38
2021/06/02 09:06:09;;;;;;;1.67;0.80;;;29.70;28.80;;;;;;4360568;32;20082;-38
2021/06/02 09:08:38;;;;;;;6.28;0.80;;;29.90;28.80;;;;;;4360461;32;20086;-39
2021/06/02 09:11:17;;;;;;;2.75;1.25;;;30.00;28.80;;;;;;4360908;32;20059;-39
2021/06/02 09:13:45;;;;;;;1.70;0.95;;;29.90;28.40;;;;;;4360636;32;20108;-38
2021/06/02 09:16:30;;;;;;;0.60;0.30;;;29.80;28.60;;;;;;4360223;32;20419;-36
2021/06/02 09:19:07;;;;;;;4.53;0.98;;;29.60;28.70;;;;;;4313754;33;20177;-36
2021/06/02 09:21:37;;;;;;;5.75;1.45;;;29.50;28.90;;;;;;4313574;33;20230;-36
2021/06/02 09:24:05;;;;;;;1.35;0.70;;;29.40;28.90;;;;;;4293407;33;20134;-37
2021/06/02 09:26:32;;;;;;;4.15;0.90;;;29.00;29.10;;;;;;4286614;33;20144;-37
2021/06/02 09:29:03;;;;;;;1.52;0.47;;;28.90;29.40;;;;;;4287259;33;20095;-38
2021/06/02 09:31:44;;;;;;;1.40;0.90;;;28.80;29.60;;;;;;4287046;33;20098;-38
2021/06/02 09:34:25;;;;;;;6.82;1.10;;;28.80;29.70;;;;;;4287105;33;20067;-37
2021/06/02 09:37:02;;;;;;;2.08;0.80;;;28.60;29.60;;;;;;4286873;33;20082;-36
2021/06/02 09:39:29;;;;;;;5.53;1.20;;;28.70;29.80;;;;;;4298778;33;20575;-37
2021/06/02 09:41:57;;;;;;;1.30;0.80;;;28.50;29.80;;;;;;4298738;33;20071;-36
2021/06/02 09:44:26;;;;;;;3.20;1.23;;;28.40;29.80;;;;;;4286743;33;20162;-38
2021/06/02 09:47:09;;;;;;;1.42;0.80;;;28.30;30.00;;;;;;4298244;33;20547;-37
2021/06/02 09:49:51;;;;;;;2.50;0.93;;;28.30;30.10;;;;;;4298971;33;20071;-37
2021/06/02 09:52:18;;;;;;;2.75;0.95;;;28.30;30.10;;;;;;4298556;33;20517;-37
2021/06/02 09:54:45;;;;;;;4.70;1.20;;;28.30;30.20;;;;;;4298247;33;20159;-38
2021/06/02 09:57:16;;;;;;;1.05;0.60;;;28.30;30.00;;;;;;4322491;32;20071;-37
2021/06/02 09:59:59;;;;;;;8.48;0.93;;;28.20;30.20;;;;;;4331015;33;20138;-37
2021/06/02 10:02:26;;;;;;;3.45;0.65;;;28.40;30.20;;;;;;4344225;32;20118;-36
2021/06/02 10:05:10;;;;;;;2.62;0.80;;;28.40;29.90;;;;;;4344438;33;20492;-36
2021/06/02 10:07:47;;;;;;;3.05;0.60;;;28.20;29.90;;;;;;4344939;32;20054;-36
2021/06/02 10:10:19;;;;;;;2.15;0.90;;;28.10;30.00;;;;;;4318654;33;20062;-38
2021/06/02 10:13:12;;;;;;;5.95;0.90;;;28.10;30.00;;;;;;4344952;32;20070;-36
2021/06/02 10:15:42;;;;;;;8.90;0.80;;;28.10;30.10;;;;;;4344918;33;20059;-40
2021/06/02 10:18:29;;;;;;;8.77;1.15;;;28.20;30.00;;;;;;4331598;33;20126;-37
2021/06/02 10:21:07;;;;;;;2.40;0.70;;;28.20;30.00;;;;;;4344660;32;20496;-38
2021/06/02 10:23:38;;;;;;;5.30;1.17;;;28.20;30.10;;;;;;4350369;32;20088;-37
2021/06/02 10:26:05;;;;;;;3.60;0.88;;;28.30;30.40;;;;;;4359534;32;20606;-36
2021/06/02 10:28:32;;;;;;;0.88;0.40;;;28.30;30.00;;;;;;4359436;32;20102;-37
2021/06/02 10:31:00;;;;;;;4.00;1.00;;;28.50;30.30;;;;;;4358878;32;20570;-37
2021/06/02 10:33:30;;;;;;;2.10;0.82;;;28.60;30.00;;;;;;4359248;32;20071;-37
2021/06/02 10:35:58;;;;;;;2.12;0.60;;;28.50;29.90;;;;;;4358913;32;20493;-36
2021/06/02 10:38:25;;;;;;;3.42;0.88;;;28.50;30.00;;;;;;4358962;32;20067;-37
2021/06/02 10:40:51;;;;;;;3.55;1.17;;;28.50;29.90;;;;;;4345611;32;20089;-36
2021/06/02 10:43:27;;;;;;;4.00;1.25;;;28.50;29.80;;;;;;4359004;32;20063;-37
2021/06/02 10:46:02;;;;;;;6.15;2.05;;;28.40;30.00;;;;;;4345401;32;20089;-37
2021/06/02 10:48:56;;;;;;;6.12;1.00;;;28.50;29.90;;;;;;4359057;32;20066;-38
2021/06/02 10:51:31;;;;;;;9.73;0.80;;;28.50;29.70;;;;;;4357242;32;20058;-37
2021/06/02 10:54:12;;;;;;;3.40;1.17;;;28.30;30.00;;;;;;4358686;32;20171;-38
2021/06/02 10:56:42;;;;;;;6.65;1.55;;;28.10;30.00;;;;;;4359014;32;20476;-38
2021/06/02 10:59:45;;;;;;;5.50;1.23;;;28.00;30.20;;;;;;4345102;32;20062;-40
2021/06/02 11:02:19;;;;;;;2.12;0.80;;;27.70;30.60;;;;;;4312039;33;20161;-37
2021/06/02 11:04:58;;;;;;;4.87;1.50;;;27.70;31.00;;;;;;4311961;33;20445;-37
2021/06/02 11:07:26;;;;;;;5.87;1.10;;;27.60;30.00;;;;;;4312190;33;20161;-36
2021/06/02 11:10:00;;;;;;;3.22;0.70;;;27.60;29.90;;;;;;4311116;33;20600;-36
2021/06/02 11:12:49;;;;;;;4.80;0.55;;;27.60;30.10;;;;;;4312282;33;20072;-37
2021/06/02 11:15:36;;;;;;;3.92;1.17;;;27.70;29.70;;;;;;4311718;33;20147;-37
2021/06/02 11:18:14;;;;;;;1.95;0.70;;;27.60;29.50;;;;;;4312189;33;20094;-37
2021/06/02 11:20:41;;;;;;;3.65;0.93;;;27.50;29.50;;;;;;4312233;33;20145;-37
2021/06/02 11:23:13;;;;;;;3.37;0.85;;;27.40;29.50;;;;;;4308815;33;20068;-36
2021/06/02 11:25:40;;;;;;;2.40;0.98;;;27.30;29.60;;;;;;4286059;33;20067;-38
2021/06/02 11:28:07;;;;;;;3.80;0.90;;;27.20;29.50;;;;;;4297175;33;20076;-36
2021/06/02 11:30:34;;;;;;;4.25;0.85;;;27.00;29.60;;;;;;4296300;33;20174;-37
2021/06/02 11:33:09;;;;;;;1.05;0.50;;;26.80;29.80;;;;;;4285022;33;20562;-36
2021/06/02 11:36:02;;;;;;;3.05;0.70;;;26.90;29.90;;;;;;4309547;33;20160;-37
2021/06/02 11:38:29;;;;;;;9.77;1.45;;;27.00;29.60;;;;;;4343605;32;20459;-38
2021/06/02 11:40:56;;;;;;;4.25;1.12;;;26.90;29.50;;;;;;4343681;32;20159;-37
2021/06/02 11:43:23;;;;;;;2.45;0.80;;;26.90;30.10;;;;;;4343556;32;20055;-37
2021/06/02 11:45:51;;;;;;;3.60;1.20;;;26.80;29.60;;;;;;4343552;33;20071;-39
2021/06/02 11:48:22;;;;;;;3.05;0.95;;;26.80;29.40;;;;;;4343192;32;20564;-37
2021/06/02 11:50:49;;;;;;;3.65;1.12;;;26.80;29.40;;;;;;4343298;32;20138;-40
2021/06/02 11:53:16;;;;;;;2.65;0.70;;;26.70;29.50;;;;;;4342891;32;20581;-36
2021/06/02 11:55:42;;;;;;;1.58;0.80;;;26.80;29.60;;;;;;4343271;32;20063;-40
2021/06/02 11:58:09;;;;;;;1.40;1.05;;;26.90;29.60;;;;;;4343302;32;20144;-37
2021/06/02 12:00:35;;;;;;;2.05;1.15;;;27.00;29.40;;;;;;4343028;33;20167;-36
2021/06/02 12:03:10;;;;;;;8.38;1.40;;;27.20;29.30;;;;;;4343040;32;20142;-38
2021/06/02 12:05:38;;;;;;;3.97;0.60;;;27.00;29.20;;;;;;4343606;32;20063;-37
2021/06/02 12:08:12;;;;;;;5.32;1.02;;;27.20;29.40;;;;;;4343382;32;20070;-36
2021/06/02 12:10:42;;;;;;;;;;;27.20;29.20;;;;;;4343712;33;20071;-36
2021/06/02 12:13:16;;;;;;;17.75;1.52;;;27.20;29.20;;;;;;4342926;32;20065;-36
2021/06/02 12:15:48;;;;;;;7.28;1.20;;;27.20;29.00;;;;;;4343453;33;20074;-38
2021/06/02 12:18:32;;;;;;;7.00;0.65;;;27.30;29.10;;;;;;4342853;32;20675;-38
2021/06/02 12:21:45;;;;;;;7.12;0.90;;;27.40;29.20;;;;;;4342891;32;20075;-37
2021/06/02 12:24:12;;;;;;;3.35;0.80;;;27.50;30.40;;;;;;4350520;32;20073;-37
2021/06/02 12:26:46;;;;;;;7.18;1.42;;;27.30;31.10;;;;;;4343690;32;20074;-37
2021/06/02 12:29:15;;;;;;;5.07;2.00;;;27.30;31.20;;;;;;4357613;32;20050;-37
2021/06/02 12:31:48;;;;;;;6.70;1.55;;;27.20;31.40;;;;;;4357478;32;20077;-36
2021/06/02 12:34:24;;;;;;;9.10;2.25;;;27.20;31.50;;;;;;4344497;32;20212;-36
2021/06/02 12:36:59;;;;;;;8.52;1.95;;;27.10;31.50;;;;;;4331625;32;20066;-37
2021/06/02 12:39:32;;;;;;;5.72;1.80;;;27.00;31.70;;;;;;4358178;32;20085;-38
2021/06/02 12:42:01;;;;;;;3.03;1.20;;;26.80;31.70;;;;;;4327921;33;20093;-37
2021/06/02 12:44:35;;;;;;;9.18;1.90;;;26.60;32.30;;;;;;4328220;33;20171;-36
2021/06/02 12:47:04;;;;;;;2.50;0.70;;;26.50;32.50;;;;;;4340337;33;20153;-37
2021/06/02 12:49:31;;;;;;;2.20;0.73;;;26.40;32.70;;;;;;4284392;33;20076;-38
2021/06/02 12:51:58;;;;;;;6.60;1.70;;;26.60;33.00;;;;;;4296574;33;20072;-37
2021/06/02 12:54:31;;;;;;;4.25;1.20;;;26.50;32.50;;;;;;4296590;33;20154;-37
2021/06/02 12:56:59;;;;;;;2.53;0.70;;;26.50;32.70;;;;;;4296356;33;20099;-38
2021/06/02 12:59:29;;;;;;;2.35;0.40;;;26.50;33.20;;;;;;4296112;33;20494;-36
2021/06/02 13:02:04;;;;;;;7.28;1.12;;;26.60;33.00;;;;;;4295795;33;20087;-38
2021/06/02 13:04:31;;;;;;;5.82;1.05;;;26.60;32.60;;;;;;4284473;33;20069;-36
2021/06/02 13:06:58;;;;;;;3.42;1.15;;;26.40;32.30;;;;;;4296618;33;20167;-37
2021/06/02 13:09:25;;;;;;;2.72;1.02;;;26.30;32.30;;;;;;4295928;33;20074;-38
2021/06/02 13:11:51;;;;;;;3.85;1.25;;;26.30;32.50;;;;;;4296594;33;20052;-38
2021/06/02 13:14:19;;;;;;;5.32;1.30;;;26.00;32.40;;;;;;4310715;33;20086;-37
2021/06/02 13:16:52;;;;;;;13.05;1.30;;;25.80;32.30;;;;;;4298959;33;20091;-36
2021/06/02 13:19:19;;;;;;;6.43;1.55;;;25.70;32.40;;;;;;4310953;32;20550;-37
2021/06/02 13:21:50;;;;;;;9.13;1.67;;;25.50;32.50;;;;;;4357478;32;20066;-36
2021/06/02 13:24:18;;;;;;;6.47;2.20;;;25.40;32.50;;;;;;4347289;32;20512;-37
2021/06/02 13:26:59;;;;;;;12.32;2.12;;;25.20;32.40;;;;;;4317114;32;20546;-38
2021/06/02 13:29:25;;;;;;;6.45;1.42;;;25.00;32.60;;;;;;4342322;33;20067;-38
2021/06/02 13:31:53;;;;;;;6.40;1.67;;;24.90;32.80;;;;;;4342476;32;20086;-36
2021/06/02 13:34:36;;;;;;;7.12;1.70;;;24.70;32.70;;;;;;4331290;33;20155;-37
2021/06/02 13:37:23;;;;;;;3.72;1.60;;;24.70;32.70;;;;;;4331609;33;20519;-38
2021/06/02 13:40:17;;;;;;;9.25;1.25;;;24.60;32.60;;;;;;4345301;32;20143;-37
2021/06/02 13:43:13;;;;;;;2.97;1.20;;;24.60;32.60;;;;;;4344829;32;20619;-37
2021/06/02 13:45:56;;;;;;;5.60;1.40;;;24.50;32.40;;;;;;4344852;32;20138;-37